Lutsen Mountain, Minnesota
Current Conditions -  °F | °C
As of 3:13 AM on Monday 20 Oct 2014 (Local Time) from KCKC Reporting Station
Overcast Overcast  
Wind Chill: 40°   Ceiling: 1200
Heat Index: 43°   Visibility: 10mi
Dew Point: 37°   Wind: 5mph
Humidity: 81%   Direction: 310°NW
Pressure: 29.8"   Gusts: NA
Location:  47.66°N, 90.71°W
Report Text: KCKC 200813Z AUTO 31004KT 10SM OVC012 06/03 A2980 RMK AO2
Loading
Personal Weather Stations






























Interactive Weather Map
Tropical Storm Tracking
New forecast layout! Learn more

10-Day Weather Forecast

Advertisements
Track Severe Weather on mobile